Windham, Iowa
Current Conditions -  °F | °C
As of 8:52 PM on Thursday 18 Dec 2014 (Local Time) from KIOW Reporting Station
Overcast Overcast  
Wind Chill: 26°   Ceiling: 4100
Heat Index: 26°   Visibility: 10mi
Dew Point: 19°   Wind: 0mph
Humidity: 75%   Direction: NA
Pressure: 30.29"   Gusts: NA
Location:  41.6512°N, 91.7745°W
Report Text: KIOW 190252Z AUTO 00000KT 10SM OVC041 M03/M07 A3029 RMK AO2 SLP268 T10331072 50003
Loading
Personal Weather Stations






























Interactive Weather Map New forecast layout! Learn more

10-Day Weather Forecast

Advertisements
Track Severe Weather on mobile